Time;durP1;ratioP1;P1;durP2;ratioP2;P2;SDS_P1;SDS_P2;PMS_P1;PMS_P2;Temp;Humidity;BMP_temperature;BMP_pressure;BME280_temperature;BME280_humidity;BME280_pressure;Samples;Min_cycle;Max_cycle;Signal;HPM_P1;HPM_P2
2022/08/01 00:00:56;;;;;;;1.10;1.10;;;;;;;;;;4969451;28;20208;-65
2022/08/01 00:03:26;;;;;;;1.13;1.13;;;;;;;;;;5006029;28;20642;-65
2022/08/01 00:05:56;;;;;;;1.00;1.00;;;;;;;;;;5008599;28;20223;-65
2022/08/01 00:08:27;;;;;;;1.30;1.20;;;;;;;;;;5006913;28;20306;-65
2022/08/01 00:10:57;;;;;;;1.13;1.07;;;;;;;;;;4987327;28;20272;-65
2022/08/01 00:13:31;;;;;;;1.30;1.20;;;;;;;;;;4990332;28;20227;-65
2022/08/01 00:16:02;;;;;;;0.87;0.87;;;;;;;;;;5003610;28;20251;-65
2022/08/01 00:18:36;;;;;;;1.20;1.10;;;;;;;;;;4975591;28;20191;-65
2022/08/01 00:21:13;;;;;;;0.90;0.90;;;;;;;;;;4999705;28;20211;-65
2022/08/01 00:23:47;;;;;;;1.20;1.10;;;;;;;;;;5007050;28;20224;-64
2022/08/01 00:26:19;;;;;;;0.93;0.93;;;;;;;;;;5007057;28;20219;-64
2022/08/01 00:28:51;;;;;;;1.10;1.00;;;;;;;;;;4984237;28;20207;-64
2022/08/01 00:31:22;;;;;;;0.93;0.93;;;;;;;;;;5007991;28;20198;-64
2022/08/01 00:33:54;;;;;;;1.00;1.00;;;;;;;;;;5021101;28;20664;-64
2022/08/01 00:36:25;;;;;;;1.00;1.00;;;;;;;;;;5009887;28;20588;-65
2022/08/01 00:38:53;;;;;;;1.40;1.30;;;;;;;;;;4992189;28;20199;-64
2022/08/01 00:41:24;;;;;;;0.87;0.87;;;;;;;;;;5026434;28;20209;-65
2022/08/01 00:43:54;;;;;;;1.00;0.90;;;;;;;;;;5007628;28;20220;-64
2022/08/01 00:46:25;;;;;;;0.70;0.70;;;;;;;;;;5015758;28;20308;-65
2022/08/01 00:49:02;;;;;;;1.17;1.10;;;;;;;;;;5010024;28;20226;-65
2022/08/01 00:51:38;;;;;;;0.90;0.90;;;;;;;;;;5021825;28;20246;-65
2022/08/01 00:54:10;;;;;;;1.30;1.20;;;;;;;;;;5017208;28;20279;-65
2022/08/01 00:56:46;;;;;;;1.10;1.07;;;;;;;;;;5019168;28;20214;-65
2022/08/01 00:59:24;;;;;;;1.40;1.30;;;;;;;;;;5022543;28;20201;-64
2022/08/01 01:01:54;;;;;;;0.93;0.93;;;;;;;;;;5005929;28;20210;-63
2022/08/01 01:04:26;;;;;;;1.20;1.10;;;;;;;;;;4987885;28;20227;-64
2022/08/01 01:07:30;;;;;;;1.13;1.03;;;;;;;;;;4992369;28;20230;-63
2022/08/01 01:10:15;;;;;;;1.57;1.10;;;;;;;;;;4973975;28;20214;-64
2022/08/01 01:13:07;;;;;;;1.00;1.00;;;;;;;;;;5000275;28;20230;-64
2022/08/01 01:15:56;;;;;;;1.10;1.00;;;;;;;;;;5000418;28;20200;-64
2022/08/01 01:18:43;;;;;;;1.10;1.10;;;;;;;;;;5010723;28;20697;-64
2022/08/01 01:21:23;;;;;;;1.20;1.10;;;;;;;;;;4985056;28;20530;-64
2022/08/01 01:24:11;;;;;;;1.10;1.10;;;;;;;;;;5012969;28;20207;-64
2022/08/01 01:26:58;;;;;;;1.23;1.13;;;;;;;;;;5008917;28;20290;-64
2022/08/01 01:29:42;;;;;;;0.93;0.93;;;;;;;;;;5004178;28;20645;-64
2022/08/01 01:32:35;;;;;;;1.13;1.10;;;;;;;;;;5004474;28;20191;-64
2022/08/01 01:35:11;;;;;;;1.00;1.00;;;;;;;;;;4987787;28;20784;-64
2022/08/01 01:37:46;;;;;;;1.10;1.10;;;;;;;;;;5012599;28;20211;-64
2022/08/01 01:40:19;;;;;;;2.43;1.10;;;;;;;;;;5004359;28;20289;-64
2022/08/01 01:42:49;;;;;;;1.10;1.10;;;;;;;;;;5008376;28;20212;-63
2022/08/01 01:45:28;;;;;;;1.10;1.10;;;;;;;;;;5004454;28;20219;-64
2022/08/01 01:47:59;;;;;;;1.37;1.27;;;;;;;;;;4994582;28;20215;-64
2022/08/01 01:50:31;;;;;;;1.20;1.10;;;;;;;;;;4994812;28;20263;-64
2022/08/01 01:53:04;;;;;;;1.10;1.10;;;;;;;;;;4986909;28;20199;-64
2022/08/01 01:55:34;;;;;;;1.00;1.00;;;;;;;;;;4990575;28;20192;-64
2022/08/01 01:58:19;;;;;;;1.13;1.03;;;;;;;;;;4990503;28;20207;-64
2022/08/01 02:00:50;;;;;;;1.23;1.17;;;;;;;;;;5009060;28;20200;-63
2022/08/01 02:03:22;;;;;;;1.23;1.13;;;;;;;;;;5011615;28;20254;-64
2022/08/01 02:05:55;;;;;;;1.30;1.20;;;;;;;;;;5024036;28;20215;-65
2022/08/01 02:08:35;;;;;;;1.20;1.10;;;;;;;;;;5018545;28;20227;-65
2022/08/01 02:11:19;;;;;;;1.40;1.30;;;;;;;;;;5000099;28;20403;-65
2022/08/01 02:13:54;;;;;;;1.20;1.10;;;;;;;;;;5000535;28;20187;-65
2022/08/01 02:16:26;;;;;;;1.20;1.10;;;;;;;;;;4973471;28;20212;-65
2022/08/01 02:19:04;;;;;;;1.33;1.27;;;;;;;;;;4974881;28;20632;-65
2022/08/01 02:21:38;;;;;;;1.30;1.20;;;;;;;;;;5006448;28;20191;-65
2022/08/01 02:24:21;;;;;;;1.20;1.10;;;;;;;;;;4986790;28;20183;-65
2022/08/01 02:27:01;;;;;;;1.20;1.10;;;;;;;;;;4966662;28;20243;-65
2022/08/01 02:29:46;;;;;;;1.40;1.30;;;;;;;;;;5006496;28;20769;-65
2022/08/01 02:32:28;;;;;;;1.10;1.00;;;;;;;;;;5019646;28;20222;-65
2022/08/01 02:35:03;;;;;;;1.00;1.00;;;;;;;;;;5026328;28;20203;-65
2022/08/01 02:37:43;;;;;;;1.37;1.27;;;;;;;;;;4969926;28;20199;-64
2022/08/01 02:40:15;;;;;;;1.00;1.00;;;;;;;;;;4987757;28;20254;-65
2022/08/01 02:42:47;;;;;;;1.10;1.00;;;;;;;;;;4992285;28;20196;-65
2022/08/01 02:45:19;;;;;;;1.30;1.20;;;;;;;;;;4991897;28;20199;-65
2022/08/01 02:47:50;;;;;;;0.93;0.93;;;;;;;;;;5009036;28;20215;-65
2022/08/01 02:50:23;;;;;;;1.30;1.20;;;;;;;;;;4996468;28;20206;-65
2022/08/01 02:52:58;;;;;;;1.30;1.20;;;;;;;;;;5002752;28;20223;-65
2022/08/01 02:55:28;;;;;;;1.30;1.20;;;;;;;;;;5006333;28;20282;-65
2022/08/01 02:58:04;;;;;;;1.30;1.20;;;;;;;;;;4984848;28;20691;-65
2022/08/01 03:00:40;;;;;;;1.07;1.07;;;;;;;;;;5008746;28;20222;-64
2022/08/01 03:03:15;;;;;;;1.10;1.10;;;;;;;;;;4994746;28;20223;-65
2022/08/01 03:05:46;;;;;;;1.17;1.13;;;;;;;;;;4995092;28;20212;-64
2022/08/01 03:08:19;;;;;;;1.00;1.00;;;;;;;;;;4990941;28;20676;-65
2022/08/01 03:10:52;;;;;;;1.40;1.30;;;;;;;;;;4999733;28;20190;-64
2022/08/01 03:13:26;;;;;;;1.30;1.20;;;;;;;;;;5005323;28;20195;-64
2022/08/01 03:16:00;;;;;;;1.30;1.20;;;;;;;;;;5004470;28;20688;-64
2022/08/01 03:18:36;;;;;;;1.27;1.17;;;;;;;;;;5009112;28;20202;-64
2022/08/01 03:21:10;;;;;;;1.30;1.30;;;;;;;;;;5005831;28;20203;-65
2022/08/01 03:23:42;;;;;;;1.20;1.13;;;;;;;;;;5014040;28;20199;-65
2022/08/01 03:26:11;;;;;;;1.30;1.30;;;;;;;;;;5006288;28;20199;-65
2022/08/01 03:28:47;;;;;;;0.93;0.93;;;;;;;;;;5005989;28;20323;-65
2022/08/01 03:31:27;;;;;;;1.23;1.13;;;;;;;;;;5006409;28;20223;-65
2022/08/01 03:33:58;;;;;;;1.40;1.30;;;;;;;;;;5009786;28;20226;-65
2022/08/01 03:36:33;;;;;;;1.20;1.10;;;;;;;;;;4988971;28;20203;-65
2022/08/01 03:39:04;;;;;;;1.50;1.40;;;;;;;;;;5002744;28;20195;-65
2022/08/01 03:41:43;;;;;;;1.10;1.10;;;;;;;;;;4991301;28;20210;-65
2022/08/01 03:44:28;;;;;;;1.00;1.00;;;;;;;;;;5007902;28;20262;-65
2022/08/01 03:47:06;;;;;;;1.43;1.33;;;;;;;;;;4985459;28;20223;-65
2022/08/01 03:49:40;;;;;;;1.43;1.33;;;;;;;;;;4973857;28;20790;-65
2022/08/01 03:52:13;;;;;;;1.40;1.30;;;;;;;;;;5004786;28;20223;-65
2022/08/01 03:54:52;;;;;;;1.40;1.30;;;;;;;;;;4991405;28;20206;-65
2022/08/01 03:57:19;;;;;;;1.23;1.13;;;;;;;;;;5019283;28;20199;-68
2022/08/01 04:00:08;;;;;;;1.40;1.30;;;;;;;;;;4989569;28;20672;-68
2022/08/01 04:02:46;;;;;;;1.30;1.20;;;;;;;;;;4997789;28;20204;-65
2022/08/01 04:05:50;;;;;;;1.10;1.10;;;;;;;;;;5007448;28;20204;-68
2022/08/01 04:08:41;;;;;;;1.30;1.20;;;;;;;;;;5006867;28;20243;-65
2022/08/01 04:11:12;;;;;;;1.40;1.30;;;;;;;;;;4971170;28;20204;-64
2022/08/01 04:13:46;;;;;;;1.47;1.37;;;;;;;;;;5008531;28;20246;-64
2022/08/01 04:16:19;;;;;;;1.43;1.33;;;;;;;;;;4996501;28;20655;-64
2022/08/01 04:18:51;;;;;;;1.27;1.20;;;;;;;;;;4993170;28;20210;-65
2022/08/01 04:21:24;;;;;;;1.20;1.10;;;;;;;;;;5001742;28;20227;-67
2022/08/01 04:24:00;;;;;;;1.40;1.30;;;;;;;;;;4985788;28;20214;-67
2022/08/01 04:26:43;;;;;;;1.30;1.30;;;;;;;;;;4979181;28;20192;-68
2022/08/01 04:29:12;;;;;;;1.30;1.20;;;;;;;;;;4985650;28;20212;-67
2022/08/01 04:31:50;;;;;;;1.50;1.40;;;;;;;;;;4991646;28;20443;-65
2022/08/01 04:34:28;;;;;;;1.43;1.37;;;;;;;;;;4992033;28;20263;-65
2022/08/01 04:37:11;;;;;;;1.30;1.20;;;;;;;;;;5006778;28;20257;-65
2022/08/01 04:39:42;;;;;;;1.50;1.40;;;;;;;;;;5011901;28;20632;-65
2022/08/01 04:42:19;;;;;;;1.13;1.10;;;;;;;;;;4995980;28;20669;-64
2022/08/01 04:44:59;;;;;;;1.50;1.40;;;;;;;;;;4990582;28;20271;-64
2022/08/01 04:47:28;;;;;;;1.40;1.30;;;;;;;;;;5007803;28;20220;-65
2022/08/01 04:49:58;;;;;;;1.30;1.20;;;;;;;;;;4967620;28;20204;-65
2022/08/01 04:52:39;;;;;;;1.40;1.30;;;;;;;;;;5001565;28;20223;-68
2022/08/01 04:55:12;;;;;;;1.23;1.20;;;;;;;;;;5000601;28;20200;-68
2022/08/01 04:57:46;;;;;;;1.30;1.20;;;;;;;;;;4994351;28;20267;-68
2022/08/01 05:00:28;;;;;;;1.50;1.37;;;;;;;;;;4975418;28;20200;-64
2022/08/01 05:03:08;;;;;;;1.37;1.23;;;;;;;;;;4999517;28;20486;-64
2022/08/01 05:05:40;;;;;;;1.53;1.43;;;;;;;;;;4978151;28;20196;-65
2022/08/01 05:08:10;;;;;;;1.80;1.70;;;;;;;;;;4997993;28;20239;-65
2022/08/01 05:10:44;;;;;;;1.63;1.53;;;;;;;;;;5001962;28;20213;-65
2022/08/01 05:13:15;;;;;;;1.30;1.20;;;;;;;;;;5009343;28;20580;-65
2022/08/01 05:16:03;;;;;;;1.60;1.50;;;;;;;;;;4996932;28;20291;-64
2022/08/01 05:18:35;;;;;;;1.60;1.50;;;;;;;;;;5000717;28;20216;-65
2022/08/01 05:21:14;;;;;;;1.50;1.40;;;;;;;;;;4991033;28;20200;-65
2022/08/01 05:23:43;;;;;;;1.60;1.50;;;;;;;;;;5019555;28;20191;-64
2022/08/01 05:26:15;;;;;;;4.30;1.60;;;;;;;;;;5007545;28;20203;-65
2022/08/01 05:28:46;;;;;;;1.47;1.37;;;;;;;;;;4973690;28;20228;-65
2022/08/01 05:31:19;;;;;;;1.60;1.50;;;;;;;;;;5026600;28;20187;-68
2022/08/01 05:33:52;;;;;;;1.50;1.40;;;;;;;;;;4985746;28;20202;-68
2022/08/01 05:36:25;;;;;;;1.40;1.30;;;;;;;;;;5005173;28;20224;-68
2022/08/01 05:38:57;;;;;;;1.53;1.43;;;;;;;;;;4958428;28;20594;-68
2022/08/01 05:41:30;;;;;;;1.50;1.40;;;;;;;;;;4998984;28;20197;-67
2022/08/01 05:44:06;;;;;;;1.33;1.23;;;;;;;;;;5000153;28;20238;-68
2022/08/01 05:46:37;;;;;;;1.67;1.57;;;;;;;;;;4992764;28;20210;-68
2022/08/01 05:49:07;;;;;;;1.30;1.20;;;;;;;;;;4991238;28;20208;-68
2022/08/01 05:51:40;;;;;;;1.60;1.50;;;;;;;;;;4995395;28;20658;-68
2022/08/01 05:54:11;;;;;;;1.50;1.40;;;;;;;;;;5016123;28;20208;-68
2022/08/01 05:56:43;;;;;;;1.80;1.70;;;;;;;;;;4997277;28;20215;-68
2022/08/01 05:59:14;;;;;;;1.60;1.50;;;;;;;;;;4972331;28;20192;-68
2022/08/01 06:01:44;;;;;;;1.60;1.50;;;;;;;;;;5009424;28;20206;-65
2022/08/01 06:04:24;;;;;;;1.83;1.73;;;;;;;;;;5005156;28;20326;-65
2022/08/01 06:06:55;;;;;;;1.60;1.50;;;;;;;;;;4979612;28;20605;-68
2022/08/01 06:09:27;;;;;;;1.57;1.47;;;;;;;;;;4994602;28;20231;-67
2022/08/01 06:12:09;;;;;;;1.53;1.43;;;;;;;;;;4995998;28;20286;-69
2022/08/01 06:14:41;;;;;;;1.53;1.43;;;;;;;;;;5002127;28;20680;-68
2022/08/01 06:17:14;;;;;;;1.37;1.27;;;;;;;;;;4987780;28;20204;-65
2022/08/01 06:19:48;;;;;;;1.50;1.40;;;;;;;;;;5010580;28;20207;-65
2022/08/01 06:22:24;;;;;;;1.47;1.37;;;;;;;;;;5011073;28;20202;-68
2022/08/01 06:24:52;;;;;;;1.77;1.67;;;;;;;;;;5012244;28;20200;-68
2022/08/01 06:27:21;;;;;;;1.50;1.40;;;;;;;;;;5000408;28;20219;-67
2022/08/01 06:29:53;;;;;;;1.60;1.50;;;;;;;;;;5009084;28;20218;-68
2022/08/01 06:32:26;;;;;;;1.60;1.50;;;;;;;;;;4991915;28;20192;-68
2022/08/01 06:34:59;;;;;;;1.47;1.37;;;;;;;;;;4990960;28;20202;-68
2022/08/01 06:37:38;;;;;;;1.80;1.70;;;;;;;;;;5004533;28;20320;-65
2022/08/01 06:40:07;;;;;;;1.53;1.43;;;;;;;;;;4995535;28;20215;-65
2022/08/01 06:42:45;;;;;;;2.30;1.50;;;;;;;;;;4975709;28;20204;-65
2022/08/01 06:45:16;;;;;;;1.83;1.50;;;;;;;;;;4998682;28;20192;-67
2022/08/01 06:47:45;;;;;;;1.70;1.60;;;;;;;;;;5021185;28;20252;-68
2022/08/01 06:50:19;;;;;;;1.40;1.30;;;;;;;;;;5016601;28;20203;-65
2022/08/01 06:52:47;;;;;;;1.57;1.47;;;;;;;;;;5003685;28;20287;-64
2022/08/01 06:55:25;;;;;;;1.80;1.57;;;;;;;;;;5008102;28;20196;-68
2022/08/01 06:57:57;;;;;;;1.93;1.70;;;;;;;;;;5006375;28;20685;-68
2022/08/01 07:00:28;;;;;;;1.57;1.47;;;;;;;;;;5003192;28;20703;-68
2022/08/01 07:02:59;;;;;;;1.60;1.43;;;;;;;;;;4984714;28;20298;-68
2022/08/01 07:05:32;;;;;;;1.43;1.33;;;;;;;;;;4987185;28;20201;-68
2022/08/01 07:08:02;;;;;;;2.03;1.67;;;;;;;;;;5002224;28;20243;-68
2022/08/01 07:10:43;;;;;;;2.00;1.60;;;;;;;;;;4992964;28;20220;-65
2022/08/01 07:13:12;;;;;;;1.60;1.50;;;;;;;;;;5002327;28;20215;-65
2022/08/01 07:15:44;;;;;;;1.50;1.40;;;;;;;;;;5012764;28;20207;-69
2022/08/01 07:18:14;;;;;;;1.50;1.40;;;;;;;;;;5016012;28;20204;-68
2022/08/01 07:20:46;;;;;;;1.60;1.50;;;;;;;;;;4973254;28;20308;-65
2022/08/01 07:23:21;;;;;;;1.70;1.60;;;;;;;;;;5007036;28;20199;-65
2022/08/01 07:26:01;;;;;;;1.47;1.37;;;;;;;;;;5004578;28;20645;-65
2022/08/01 07:28:32;;;;;;;1.27;1.17;;;;;;;;;;5010205;28;20308;-65
2022/08/01 07:31:11;;;;;;;1.30;1.20;;;;;;;;;;4982263;28;20196;-68
2022/08/01 07:33:44;;;;;;;1.57;1.47;;;;;;;;;;5004504;28;20205;-67
2022/08/01 07:36:16;;;;;;;1.27;1.27;;;;;;;;;;5018037;28;20960;-68
2022/08/01 07:38:49;;;;;;;1.30;1.20;;;;;;;;;;4982192;28;20197;-69
2022/08/01 07:41:22;;;;;;;1.30;1.20;;;;;;;;;;5005677;28;20211;-68
2022/08/01 07:44:15;;;;;;;1.50;1.40;;;;;;;;;;5008884;28;20228;-69
2022/08/01 07:46:51;;;;;;;1.43;1.33;;;;;;;;;;4996388;28;20574;-65
2022/08/01 07:49:23;;;;;;;1.50;1.40;;;;;;;;;;5012199;28;20229;-66
2022/08/01 07:51:57;;;;;;;1.43;1.30;;;;;;;;;;5000897;28;20644;-65
2022/08/01 07:54:34;;;;;;;1.80;1.70;;;;;;;;;;4999766;28;20210;-65
2022/08/01 07:57:04;;;;;;;1.30;1.20;;;;;;;;;;4994540;28;20274;-68
2022/08/01 07:59:36;;;;;;;1.27;1.23;;;;;;;;;;5004918;28;21728;-68
2022/08/01 08:02:09;;;;;;;1.40;1.30;;;;;;;;;;5003377;28;20632;-65
2022/08/01 08:04:39;;;;;;;1.60;1.50;;;;;;;;;;5001886;28;20261;-65
2022/08/01 08:07:16;;;;;;;1.23;1.10;;;;;;;;;;5003894;28;20242;-65
2022/08/01 08:09:48;;;;;;;1.10;1.10;;;;;;;;;;4987015;28;20619;-65
2022/08/01 08:12:20;;;;;;;1.47;1.37;;;;;;;;;;5004324;28;20196;-68
2022/08/01 08:14:58;;;;;;;1.30;1.20;;;;;;;;;;4999697;28;20193;-68
2022/08/01 08:17:35;;;;;;;1.50;1.40;;;;;;;;;;4985135;28;20219;-65
2022/08/01 08:20:08;;;;;;;1.10;1.10;;;;;;;;;;4980279;28;20802;-65
2022/08/01 08:22:37;;;;;;;1.10;1.10;;;;;;;;;;4979027;28;20222;-65
2022/08/01 08:25:06;;;;;;;1.33;1.23;;;;;;;;;;4996935;28;20212;-65
2022/08/01 08:27:39;;;;;;;1.30;1.20;;;;;;;;;;5003583;28;20285;-65
2022/08/01 08:30:11;;;;;;;1.13;1.03;;;;;;;;;;5009733;28;20629;-65
2022/08/01 08:32:53;;;;;;;1.10;1.10;;;;;;;;;;4981323;28;20227;-64
2022/08/01 08:35:26;;;;;;;1.73;1.10;;;;;;;;;;4992831;28;20227;-64
2022/08/01 08:38:18;;;;;;;1.00;1.00;;;;;;;;;;5011907;28;20210;-64
2022/08/01 08:40:58;;;;;;;0.97;0.97;;;;;;;;;;4993548;28;20226;-65
2022/08/01 08:43:42;;;;;;;1.20;1.10;;;;;;;;;;5004576;28;20729;-65
2022/08/01 08:46:14;;;;;;;1.40;1.30;;;;;;;;;;4990070;28;20210;-65
2022/08/01 08:48:43;;;;;;;1.10;1.10;;;;;;;;;;4998315;28;20297;-65
2022/08/01 08:51:12;;;;;;;1.40;1.30;;;;;;;;;;4984176;28;20680;-67
2022/08/01 08:53:47;;;;;;;1.23;1.13;;;;;;;;;;4998849;28;20271;-67
2022/08/01 08:56:29;;;;;;;1.03;1.03;;;;;;;;;;5001402;28;20196;-64
2022/08/01 08:59:16;;;;;;;1.20;1.10;;;;;;;;;;4991830;28;20195;-65
2022/08/01 09:01:58;;;;;;;1.20;1.20;;;;;;;;;;5006237;28;20219;-65
2022/08/01 09:04:30;;;;;;;1.10;1.07;;;;;;;;;;4988972;28;20652;-65
2022/08/01 09:07:00;;;;;;;0.90;0.90;;;;;;;;;;4985488;28;20196;-67
2022/08/01 09:09:31;;;;;;;0.80;0.80;;;;;;;;;;5008194;28;20231;-67
2022/08/01 09:12:10;;;;;;;0.93;0.93;;;;;;;;;;4989257;28;20378;-67
2022/08/01 09:14:47;;;;;;;1.00;1.00;;;;;;;;;;5004627;28;20192;-67
2022/08/01 09:17:16;;;;;;;0.90;0.90;;;;;;;;;;5001987;28;20227;-65
2022/08/01 09:19:52;;;;;;;0.97;0.90;;;;;;;;;;5008438;28;20226;-65
2022/08/01 09:22:34;;;;;;;1.20;1.10;;;;;;;;;;5008626;28;20194;-67
2022/08/01 09:25:18;;;;;;;0.90;0.90;;;;;;;;;;4995613;28;20299;-68
2022/08/01 09:28:05;;;;;;;1.10;1.10;;;;;;;;;;4964718;28;20211;-68
2022/08/01 09:30:42;;;;;;;1.57;1.07;;;;;;;;;;4987879;28;20212;-67
2022/08/01 09:33:19;;;;;;;0.90;0.90;;;;;;;;;;5002815;28;20207;-67
2022/08/01 09:35:56;;;;;;;1.00;1.00;;;;;;;;;;5006946;28;20191;-64
2022/08/01 09:38:27;;;;;;;1.53;1.13;;;;;;;;;;4999367;28;20226;-64
2022/08/01 09:41:14;;;;;;;1.00;1.00;;;;;;;;;;5005438;28;20772;-65
2022/08/01 09:44:14;;;;;;;0.87;0.87;;;;;;;;;;4977612;28;20249;-64
2022/08/01 09:46:56;;;;;;;0.80;0.80;;;;;;;;;;4983997;28;20216;-67
2022/08/01 09:49:37;;;;;;;0.80;0.80;;;;;;;;;;4968109;28;20733;-67
2022/08/01 09:52:25;;;;;;;0.90;0.90;;;;;;;;;;4996264;28;20673;-65
2022/08/01 09:54:59;;;;;;;2.40;1.07;;;;;;;;;;5003360;28;20200;-65
2022/08/01 09:57:32;;;;;;;1.10;1.10;;;;;;;;;;5015238;28;20195;-68
2022/08/01 10:00:05;;;;;;;0.90;0.90;;;;;;;;;;5010273;28;20191;-68
2022/08/01 10:02:58;;;;;;;0.77;0.77;;;;;;;;;;4996780;28;20258;-68
2022/08/01 10:05:42;;;;;;;1.00;1.00;;;;;;;;;;4994421;28;20199;-65
2022/08/01 10:08:17;;;;;;;0.90;0.90;;;;;;;;;;4990824;28;20266;-66
2022/08/01 10:11:12;;;;;;;0.90;0.90;;;;;;;;;;5001590;28;20195;-66
2022/08/01 10:13:45;;;;;;;1.00;1.00;;;;;;;;;;4987292;28;20211;-65
2022/08/01 10:16:17;;;;;;;1.30;1.20;;;;;;;;;;5009425;28;20834;-67
2022/08/01 10:18:47;;;;;;;0.80;0.80;;;;;;;;;;4999327;28;20711;-68
2022/08/01 10:21:17;;;;;;;0.83;0.83;;;;;;;;;;5001187;28;20209;-67
2022/08/01 10:24:13;;;;;;;0.80;0.80;;;;;;;;;;4999305;28;20207;-67
2022/08/01 10:26:54;;;;;;;0.90;0.90;;;;;;;;;;4974542;28;20199;-64
2022/08/01 10:29:26;;;;;;;0.90;0.90;;;;;;;;;;5001797;28;20223;-64
2022/08/01 10:32:21;;;;;;;1.10;1.10;;;;;;;;;;5009540;28;20188;-67
2022/08/01 10:34:58;;;;;;;1.23;1.10;;;;;;;;;;5002464;28;20216;-67
2022/08/01 10:37:39;;;;;;;1.40;1.30;;;;;;;;;;5008791;28;20220;-68
2022/08/01 10:40:21;;;;;;;1.13;1.10;;;;;;;;;;4986160;28;20216;-68
2022/08/01 10:43:01;;;;;;;1.30;1.20;;;;;;;;;;4977871;28;20680;-69
2022/08/01 10:45:35;;;;;;;1.30;1.20;;;;;;;;;;5004806;28;20592;-66
2022/08/01 10:48:40;;;;;;;1.40;1.30;;;;;;;;;;5017051;28;20294;-66
2022/08/01 10:51:12;;;;;;;1.40;1.30;;;;;;;;;;5014086;28;20221;-66
2022/08/01 10:53:51;;;;;;;1.77;1.13;;;;;;;;;;4988789;28;20286;-66
2022/08/01 10:56:39;;;;;;;1.10;1.00;;;;;;;;;;4998917;28;20279;-66
2022/08/01 10:59:11;;;;;;;1.70;1.60;;;;;;;;;;4990379;28;20195;-66
2022/08/01 11:01:43;;;;;;;1.40;1.30;;;;;;;;;;4991388;28;20723;-66
2022/08/01 11:04:16;;;;;;;1.20;1.20;;;;;;;;;;4998451;28;20204;-66
2022/08/01 11:07:09;;;;;;;1.03;1.03;;;;;;;;;;5002788;28;20221;-69
2022/08/01 11:09:47;;;;;;;1.37;1.27;;;;;;;;;;4988132;28;20242;-68
2022/08/01 11:12:19;;;;;;;1.80;1.70;;;;;;;;;;5013212;28;20206;-68
2022/08/01 11:15:24;;;;;;;1.00;1.00;;;;;;;;;;4998333;28;20266;-68
2022/08/01 11:17:57;;;;;;;1.33;1.20;;;;;;;;;;4941915;28;20225;-66
2022/08/01 11:20:34;;;;;;;1.40;1.30;;;;;;;;;;4992276;28;20649;-65
2022/08/01 11:23:12;;;;;;;1.20;1.07;;;;;;;;;;4993864;28;20593;-65
2022/08/01 11:25:49;;;;;;;1.30;1.20;;;;;;;;;;5003365;28;20234;-68
2022/08/01 11:28:38;;;;;;;1.27;1.17;;;;;;;;;;4988423;28;20216;-69
2022/08/01 11:31:27;;;;;;;1.10;1.10;;;;;;;;;;4991256;28;20716;-68
2022/08/01 11:34:04;;;;;;;1.63;1.27;;;;;;;;;;4985154;28;20612;-68
2022/08/01 11:36:39;;;;;;;1.20;1.20;;;;;;;;;;4987036;28;20346;-69
2022/08/01 11:39:29;;;;;;;1.00;1.00;;;;;;;;;;5004344;28;20299;-69
2022/08/01 11:42:19;;;;;;;1.50;1.40;;;;;;;;;;5004945;28;20194;-69
2022/08/01 11:44:55;;;;;;;1.00;1.00;;;;;;;;;;4978692;28;20193;-68
2022/08/01 11:47:45;;;;;;;1.20;1.10;;;;;;;;;;5002873;28;20195;-69
2022/08/01 11:50:37;;;;;;;1.30;1.20;;;;;;;;;;4983948;28;20311;-66
2022/08/01 11:53:08;;;;;;;1.30;1.20;;;;;;;;;;4995675;28;20239;-66
2022/08/01 11:55:46;;;;;;;0.87;0.87;;;;;;;;;;4989809;28;20202;-68
2022/08/01 11:58:22;;;;;;;1.20;1.10;;;;;;;;;;5000924;28;20647;-69
2022/08/01 12:01:00;;;;;;;1.27;1.03;;;;;;;;;;4975524;28;20801;-66
2022/08/01 12:03:35;;;;;;;1.30;1.20;;;;;;;;;;4990531;28;20199;-67
2022/08/01 12:06:11;;;;;;;1.17;1.07;;;;;;;;;;4992116;28;20667;-68
2022/08/01 12:08:44;;;;;;;1.20;1.10;;;;;;;;;;5005652;28;20239;-68
2022/08/01 12:11:15;;;;;;;0.83;0.83;;;;;;;;;;4993719;28;20215;-68
2022/08/01 12:13:47;;;;;;;1.13;0.80;;;;;;;;;;5006686;28;20268;-68
2022/08/01 12:16:20;;;;;;;0.97;0.93;;;;;;;;;;5003405;28;20274;-68
2022/08/01 12:18:57;;;;;;;3.00;1.00;;;;;;;;;;5005107;28;20195;-68
2022/08/01 12:21:29;;;;;;;1.30;0.90;;;;;;;;;;5007797;28;20207;-68
2022/08/01 12:24:02;;;;;;;0.93;0.93;;;;;;;;;;4981994;28;20211;-69
2022/08/01 12:26:41;;;;;;;1.13;0.87;;;;;;;;;;4988438;28;20208;-68
2022/08/01 12:29:32;;;;;;;1.33;0.90;;;;;;;;;;5002674;28;20239;-68
2022/08/01 12:32:01;;;;;;;1.00;1.00;;;;;;;;;;4989536;28;20187;-68
2022/08/01 12:34:33;;;;;;;0.87;0.83;;;;;;;;;;5025074;28;20199;-69
2022/08/01 12:37:05;;;;;;;1.20;1.10;;;;;;;;;;5005796;28;20203;-67
2022/08/01 12:39:38;;;;;;;1.07;1.00;;;;;;;;;;5001592;28;20215;-66
2022/08/01 12:42:10;;;;;;;1.10;1.00;;;;;;;;;;5025722;28;20198;-66
2022/08/01 12:44:45;;;;;;;0.80;0.80;;;;;;;;;;4996803;28;20195;-66
2022/08/01 12:47:20;;;;;;;1.50;1.27;;;;;;;;;;5004147;28;20203;-66
2022/08/01 12:49:49;;;;;;;1.40;0.90;;;;;;;;;;4971370;28;20287;-66
2022/08/01 12:52:22;;;;;;;0.90;0.90;;;;;;;;;;4971209;28;20224;-66
2022/08/01 12:55:05;;;;;;;1.07;0.97;;;;;;;;;;5024524;28;20194;-66
2022/08/01 12:57:38;;;;;;;1.20;1.10;;;;;;;;;;5019962;28;20188;-68
2022/08/01 13:00:17;;;;;;;2.00;1.20;;;;;;;;;;4985475;28;20211;-69
2022/08/01 13:03:11;;;;;;;1.57;1.20;;;;;;;;;;4973831;28;20665;-68
2022/08/01 13:05:43;;;;;;;1.10;1.00;;;;;;;;;;4985698;28;20826;-68
2022/08/01 13:08:21;;;;;;;1.20;0.80;;;;;;;;;;4981568;28;20263;-69
2022/08/01 13:11:00;;;;;;;1.10;1.00;;;;;;;;;;4981332;28;20321;-66
2022/08/01 13:13:42;;;;;;;1.23;1.13;;;;;;;;;;4986490;28;20196;-66
2022/08/01 13:16:19;;;;;;;1.37;1.00;;;;;;;;;;4994878;28;20214;-67
2022/08/01 13:19:02;;;;;;;0.90;0.80;;;;;;;;;;4989731;28;20192;-67
2022/08/01 13:21:36;;;;;;;1.53;0.90;;;;;;;;;;5022294;28;20234;-67
2022/08/01 13:24:30;;;;;;;1.00;0.90;;;;;;;;;;5013432;28;20255;-67
2022/08/01 13:27:13;;;;;;;1.10;1.00;;;;;;;;;;5004825;28;20196;-68
2022/08/01 13:29:49;;;;;;;1.10;1.00;;;;;;;;;;5010630;28;20206;-68
2022/08/01 13:32:22;;;;;;;1.40;1.30;;;;;;;;;;5029090;28;20236;-68
2022/08/01 13:35:05;;;;;;;2.27;0.90;;;;;;;;;;4996359;28;20705;-68
2022/08/01 13:37:37;;;;;;;1.40;1.10;;;;;;;;;;4996995;28;20196;-68
2022/08/01 13:40:09;;;;;;;1.30;1.10;;;;;;;;;;5008308;28;20222;-68
2022/08/01 13:42:45;;;;;;;1.33;1.17;;;;;;;;;;5015042;28;20648;-68
2022/08/01 13:45:17;;;;;;;1.97;0.90;;;;;;;;;;5003594;28;20266;-67
2022/08/01 13:47:48;;;;;;;1.00;0.97;;;;;;;;;;4981928;28;20247;-66
2022/08/01 13:50:41;;;;;;;1.40;1.00;;;;;;;;;;5022241;28;20203;-66
2022/08/01 13:53:26;;;;;;;1.27;1.10;;;;;;;;;;4992820;28;20199;-66
2022/08/01 13:55:57;;;;;;;1.07;0.93;;;;;;;;;;5008326;28;20234;-70
2022/08/01 13:58:27;;;;;;;1.23;0.90;;;;;;;;;;5020463;28;20199;-68
2022/08/01 14:01:00;;;;;;;1.50;0.90;;;;;;;;;;4971829;28;20275;-69
2022/08/01 14:03:34;;;;;;;1.07;1.00;;;;;;;;;;5002197;28;20224;-68
2022/08/01 14:06:04;;;;;;;0.90;0.90;;;;;;;;;;5004928;28;20216;-66
2022/08/01 14:08:38;;;;;;;1.17;1.10;;;;;;;;;;5008369;28;20242;-67
2022/08/01 14:11:17;;;;;;;1.77;1.00;;;;;;;;;;5013385;28;20610;-66
2022/08/01 14:13:49;;;;;;;1.47;1.23;;;;;;;;;;4981945;28;20289;-66
2022/08/01 14:16:21;;;;;;;1.20;0.93;;;;;;;;;;5005735;28;20212;-68
2022/08/01 14:18:51;;;;;;;1.77;1.20;;;;;;;;;;5001713;28;20591;-68
2022/08/01 14:21:20;;;;;;;1.20;1.03;;;;;;;;;;5014899;28;20207;-66
2022/08/01 14:23:57;;;;;;;1.47;1.03;;;;;;;;;;5019011;28;20199;-66
2022/08/01 14:26:29;;;;;;;0.87;0.87;;;;;;;;;;5009351;28;20266;-66
2022/08/01 14:29:04;;;;;;;1.40;1.07;;;;;;;;;;4973541;28;20222;-66
2022/08/01 14:31:35;;;;;;;1.10;1.00;;;;;;;;;;4996500;28;20223;-69
2022/08/01 14:34:04;;;;;;;1.50;1.20;;;;;;;;;;5009820;28;20207;-69
2022/08/01 14:36:35;;;;;;;1.70;1.30;;;;;;;;;;5010688;28;20638;-66
2022/08/01 14:39:07;;;;;;;1.43;1.00;;;;;;;;;;5000797;28;20226;-66
2022/08/01 14:41:42;;;;;;;1.20;1.10;;;;;;;;;;5008893;28;20215;-69
2022/08/01 14:44:18;;;;;;;1.00;1.00;;;;;;;;;;5007699;28;20188;-68
2022/08/01 14:46:49;;;;;;;1.30;1.20;;;;;;;;;;4982126;28;20200;-66
2022/08/01 14:49:27;;;;;;;1.53;1.20;;;;;;;;;;4998606;28;20664;-66
2022/08/01 14:52:00;;;;;;;1.67;1.33;;;;;;;;;;4994826;28;20213;-67
2022/08/01 14:54:33;;;;;;;1.83;1.27;;;;;;;;;;5009416;28;20531;-67
2022/08/01 14:57:02;;;;;;;1.57;1.10;;;;;;;;;;4993127;28;20624;-67
2022/08/01 14:59:35;;;;;;;1.37;1.20;;;;;;;;;;5008832;28;20677;-67
2022/08/01 15:02:06;;;;;;;1.40;1.30;;;;;;;;;;4993670;28;20217;-68
2022/08/01 15:04:39;;;;;;;1.17;1.07;;;;;;;;;;5006113;28;20207;-69
2022/08/01 15:07:11;;;;;;;1.30;1.17;;;;;;;;;;5000476;28;20290;-68
2022/08/01 15:09:40;;;;;;;1.43;1.33;;;;;;;;;;5008216;28;20235;-68
2022/08/01 15:12:16;;;;;;;1.87;1.20;;;;;;;;;;4992554;28;20195;-66
2022/08/01 15:14:48;;;;;;;1.47;1.00;;;;;;;;;;5019046;28;20203;-66
2022/08/01 15:17:18;;;;;;;1.37;1.27;;;;;;;;;;5004648;28;20204;-67
2022/08/01 15:19:52;;;;;;;1.23;1.10;;;;;;;;;;5002277;28;20214;-68
2022/08/01 15:22:26;;;;;;;1.20;1.10;;;;;;;;;;4987485;28;20623;-66
2022/08/01 15:24:56;;;;;;;1.33;1.07;;;;;;;;;;5000422;28;20207;-66
2022/08/01 15:27:29;;;;;;;1.70;1.30;;;;;;;;;;4987653;28;20294;-66
2022/08/01 15:30:00;;;;;;;1.10;1.00;;;;;;;;;;4975251;28;20822;-66
2022/08/01 15:32:31;;;;;;;1.23;1.13;;;;;;;;;;4990757;28;20290;-68
2022/08/01 15:35:02;;;;;;;1.60;1.37;;;;;;;;;;5005476;28;20786;-68